Bridge Hampton, New York
Current Conditions -  °F | °C
As of 6:53 AM on Thursday 27 Nov 2014 (Local Time) from KFOK Reporting Station
Overcast Overcast  
Wind Chill: 31°   Ceiling: 5000
Heat Index: 36°   Visibility: 10mi
Dew Point: 32°   Wind: 6mph
Humidity: 86%   Direction: 290°WNW
Pressure: 29.94"   Gusts: NA
Location:  40.9594°N, 72.2887°W
Report Text: KFOK 271153Z AUTO 29005KT 10SM FEW020 OVC050 02/00 A2994 RMK AO2 SLP139 60004 70115 T00220000 10028 20022 51018 TSNO
Loading
Personal Weather Stations






























Interactive Weather Map New forecast layout! Learn more

10-Day Weather Forecast

Advertisements
Track Severe Weather on mobile